sensor_id;sensor_type;location;lat;lon;timestamp;P1;durP1;ratioP1;P2;durP2;ratioP2
13252;SDS011;6693;54.370;10.132;2022-12-11T00:01:06;29.25;;;12.95;;
13252;SDS011;6693;54.370;10.132;2022-12-11T00:02:08;27.00;;;11.75;;
13252;SDS011;6693;54.370;10.132;2022-12-11T00:03:11;27.17;;;12.18;;
13252;SDS011;6693;54.370;10.132;2022-12-11T00:04:11;26.83;;;11.60;;
13252;SDS011;6693;54.370;10.132;2022-12-11T00:05:17;21.67;;;9.10;;
13252;SDS011;6693;54.370;10.132;2022-12-11T00:06:19;25.15;;;10.30;;
13252;SDS011;6693;54.370;10.132;2022-12-11T00:07:23;22.83;;;9.50;;
13252;SDS011;6693;54.370;10.132;2022-12-11T00:08:24;24.45;;;10.88;;
13252;SDS011;6693;54.370;10.132;2022-12-11T00:09:27;24.17;;;11.10;;
13252;SDS011;6693;54.370;10.132;2022-12-11T00:10:28;22.95;;;10.73;;
13252;SDS011;6693;54.370;10.132;2022-12-11T00:11:31;23.73;;;8.68;;
13252;SDS011;6693;54.370;10.132;2022-12-11T00:13:38;25.45;;;10.75;;
13252;SDS011;6693;54.370;10.132;2022-12-11T00:14:41;23.63;;;9.77;;
13252;SDS011;6693;54.370;10.132;2022-12-11T00:15:42;25.35;;;11.23;;
13252;SDS011;6693;54.370;10.132;2022-12-11T00:16:46;25.95;;;10.60;;
13252;SDS011;6693;54.370;10.132;2022-12-11T00:17:46;26.60;;;11.23;;
13252;SDS011;6693;54.370;10.132;2022-12-11T00:18:50;25.05;;;10.90;;
13252;SDS011;6693;54.370;10.132;2022-12-11T00:19:50;26.10;;;11.23;;
13252;SDS011;6693;54.370;10.132;2022-12-11T00:20:58;23.15;;;9.73;;
13252;SDS011;6693;54.370;10.132;2022-12-11T00:21:59;23.08;;;11.02;;
13252;SDS011;6693;54.370;10.132;2022-12-11T00:23:03;22.65;;;10.05;;
13252;SDS011;6693;54.370;10.132;2022-12-11T00:24:04;21.27;;;9.70;;
13252;SDS011;6693;54.370;10.132;2022-12-11T00:25:08;21.25;;;9.20;;
13252;SDS011;6693;54.370;10.132;2022-12-11T00:26:10;23.02;;;10.18;;
13252;SDS011;6693;54.370;10.132;2022-12-11T00:27:15;24.25;;;10.23;;
13252;SDS011;6693;54.370;10.132;2022-12-11T00:28:16;21.58;;;9.00;;
13252;SDS011;6693;54.370;10.132;2022-12-11T00:29:19;22.70;;;9.27;;
13252;SDS011;6693;54.370;10.132;2022-12-11T00:30:20;21.17;;;9.30;;
13252;SDS011;6693;54.370;10.132;2022-12-11T00:31:23;23.25;;;9.75;;
13252;SDS011;6693;54.370;10.132;2022-12-11T00:32:24;23.23;;;10.05;;
13252;SDS011;6693;54.370;10.132;2022-12-11T00:33:27;23.42;;;9.00;;
13252;SDS011;6693;54.370;10.132;2022-12-11T00:34:28;24.13;;;9.55;;
13252;SDS011;6693;54.370;10.132;2022-12-11T00:35:31;23.23;;;9.93;;
13252;SDS011;6693;54.370;10.132;2022-12-11T00:36:34;25.13;;;10.50;;
13252;SDS011;6693;54.370;10.132;2022-12-11T00:37:38;26.30;;;11.52;;
13252;SDS011;6693;54.370;10.132;2022-12-11T00:38:38;23.98;;;10.38;;
13252;SDS011;6693;54.370;10.132;2022-12-11T00:39:42;22.63;;;9.73;;
13252;SDS011;6693;54.370;10.132;2022-12-11T00:40:42;21.85;;;9.90;;
13252;SDS011;6693;54.370;10.132;2022-12-11T00:41:46;23.67;;;10.48;;
13252;SDS011;6693;54.370;10.132;2022-12-11T00:42:49;23.10;;;11.00;;
13252;SDS011;6693;54.370;10.132;2022-12-11T00:43:50;24.77;;;11.07;;
13252;SDS011;6693;54.370;10.132;2022-12-11T00:44:53;22.48;;;9.82;;
13252;SDS011;6693;54.370;10.132;2022-12-11T00:45:55;23.05;;;9.93;;
13252;SDS011;6693;54.370;10.132;2022-12-11T00:46:58;22.75;;;9.35;;
13252;SDS011;6693;54.370;10.132;2022-12-11T00:47:59;23.85;;;10.70;;
13252;SDS011;6693;54.370;10.132;2022-12-11T00:49:02;22.60;;;9.52;;
13252;SDS011;6693;54.370;10.132;2022-12-11T00:50:06;22.80;;;9.27;;
13252;SDS011;6693;54.370;10.132;2022-12-11T00:51:07;23.35;;;9.82;;
13252;SDS011;6693;54.370;10.132;2022-12-11T00:52:14;23.83;;;9.73;;
13252;SDS011;6693;54.370;10.132;2022-12-11T00:53:16;23.52;;;10.18;;
13252;SDS011;6693;54.370;10.132;2022-12-11T00:54:19;23.75;;;10.57;;
13252;SDS011;6693;54.370;10.132;2022-12-11T00:55:20;23.52;;;10.35;;
13252;SDS011;6693;54.370;10.132;2022-12-11T00:56:24;24.23;;;10.57;;
13252;SDS011;6693;54.370;10.132;2022-12-11T00:57:25;25.85;;;10.98;;
13252;SDS011;6693;54.370;10.132;2022-12-11T00:58:28;24.88;;;10.77;;
13252;SDS011;6693;54.370;10.132;2022-12-11T00:59:29;26.08;;;10.93;;
13252;SDS011;6693;54.370;10.132;2022-12-11T01:00:32;24.45;;;9.93;;
13252;SDS011;6693;54.370;10.132;2022-12-11T01:01:33;23.88;;;10.15;;
13252;SDS011;6693;54.370;10.132;2022-12-11T01:02:36;26.17;;;10.50;;
13252;SDS011;6693;54.370;10.132;2022-12-11T01:03:37;24.05;;;10.43;;
13252;SDS011;6693;54.370;10.132;2022-12-11T01:04:40;22.15;;;9.75;;
13252;SDS011;6693;54.370;10.132;2022-12-11T01:05:49;25.95;;;11.40;;
13252;SDS011;6693;54.370;10.132;2022-12-11T01:06:50;21.92;;;9.85;;
13252;SDS011;6693;54.370;10.132;2022-12-11T01:07:56;24.85;;;9.70;;
13252;SDS011;6693;54.370;10.132;2022-12-11T01:08:57;25.95;;;11.18;;
13252;SDS011;6693;54.370;10.132;2022-12-11T01:10:12;26.50;;;10.63;;
13252;SDS011;6693;54.370;10.132;2022-12-11T01:11:28;24.20;;;9.63;;
13252;SDS011;6693;54.370;10.132;2022-12-11T01:12:28;24.90;;;11.32;;
13252;SDS011;6693;54.370;10.132;2022-12-11T01:13:32;23.98;;;10.45;;
13252;SDS011;6693;54.370;10.132;2022-12-11T01:14:32;24.67;;;10.00;;
13252;SDS011;6693;54.370;10.132;2022-12-11T01:15:37;23.77;;;10.68;;
13252;SDS011;6693;54.370;10.132;2022-12-11T01:16:39;25.45;;;9.93;;
13252;SDS011;6693;54.370;10.132;2022-12-11T01:17:42;24.70;;;11.10;;
13252;SDS011;6693;54.370;10.132;2022-12-11T01:18:43;24.95;;;11.05;;
13252;SDS011;6693;54.370;10.132;2022-12-11T01:19:46;26.33;;;11.13;;
13252;SDS011;6693;54.370;10.132;2022-12-11T01:20:47;29.45;;;12.35;;
13252;SDS011;6693;54.370;10.132;2022-12-11T01:21:50;28.42;;;12.45;;
13252;SDS011;6693;54.370;10.132;2022-12-11T01:22:57;28.33;;;11.32;;
13252;SDS011;6693;54.370;10.132;2022-12-11T01:23:58;27.17;;;10.77;;
13252;SDS011;6693;54.370;10.132;2022-12-11T01:25:02;29.75;;;12.07;;
13252;SDS011;6693;54.370;10.132;2022-12-11T01:26:05;32.70;;;14.38;;
13252;SDS011;6693;54.370;10.132;2022-12-11T01:27:09;28.70;;;12.57;;
13252;SDS011;6693;54.370;10.132;2022-12-11T01:28:09;33.33;;;13.55;;
13252;SDS011;6693;54.370;10.132;2022-12-11T01:29:12;28.60;;;13.27;;
13252;SDS011;6693;54.370;10.132;2022-12-11T01:30:13;29.33;;;11.80;;
13252;SDS011;6693;54.370;10.132;2022-12-11T01:31:17;30.88;;;11.90;;
13252;SDS011;6693;54.370;10.132;2022-12-11T01:32:18;28.70;;;12.82;;
13252;SDS011;6693;54.370;10.132;2022-12-11T01:33:21;32.17;;;13.05;;
13252;SDS011;6693;54.370;10.132;2022-12-11T01:34:22;30.80;;;13.20;;
13252;SDS011;6693;54.370;10.132;2022-12-11T01:35:25;27.05;;;11.55;;
13252;SDS011;6693;54.370;10.132;2022-12-11T01:36:26;29.60;;;11.27;;
13252;SDS011;6693;54.370;10.132;2022-12-11T01:37:30;25.80;;;10.40;;
13252;SDS011;6693;54.370;10.132;2022-12-11T01:38:33;28.08;;;12.70;;
13252;SDS011;6693;54.370;10.132;2022-12-11T01:39:36;27.27;;;12.85;;
13252;SDS011;6693;54.370;10.132;2022-12-11T01:40:37;26.27;;;11.77;;
13252;SDS011;6693;54.370;10.132;2022-12-11T01:41:40;28.75;;;11.13;;
13252;SDS011;6693;54.370;10.132;2022-12-11T01:42:41;25.52;;;10.35;;
13252;SDS011;6693;54.370;10.132;2022-12-11T01:43:58;27.50;;;11.95;;
13252;SDS011;6693;54.370;10.132;2022-12-11T01:46:27;27.45;;;11.45;;
13252;SDS011;6693;54.370;10.132;2022-12-11T01:47:30;30.17;;;13.23;;
13252;SDS011;6693;54.370;10.132;2022-12-11T01:48:31;28.27;;;11.38;;
13252;SDS011;6693;54.370;10.132;2022-12-11T01:49:34;29.85;;;11.48;;
13252;SDS011;6693;54.370;10.132;2022-12-11T01:50:37;31.73;;;12.85;;
13252;SDS011;6693;54.370;10.132;2022-12-11T01:51:44;29.90;;;13.02;;
13252;SDS011;6693;54.370;10.132;2022-12-11T01:52:48;28.58;;;12.65;;
13252;SDS011;6693;54.370;10.132;2022-12-11T01:53:54;30.00;;;14.13;;
13252;SDS011;6693;54.370;10.132;2022-12-11T01:54:58;26.60;;;12.32;;
13252;SDS011;6693;54.370;10.132;2022-12-11T01:56:02;29.98;;;14.05;;
13252;SDS011;6693;54.370;10.132;2022-12-11T01:57:06;30.70;;;12.55;;
13252;SDS011;6693;54.370;10.132;2022-12-11T01:59:11;30.73;;;12.68;;
13252;SDS011;6693;54.370;10.132;2022-12-11T02:00:14;30.08;;;13.20;;
13252;SDS011;6693;54.370;10.132;2022-12-11T02:01:19;29.17;;;12.90;;
13252;SDS011;6693;54.370;10.132;2022-12-11T02:02:27;29.75;;;12.70;;
13252;SDS011;6693;54.370;10.132;2022-12-11T02:03:29;29.95;;;11.70;;
13252;SDS011;6693;54.370;10.132;2022-12-11T02:04:32;28.85;;;13.20;;
13252;SDS011;6693;54.370;10.132;2022-12-11T02:05:35;29.92;;;12.88;;
13252;SDS011;6693;54.370;10.132;2022-12-11T02:06:39;30.13;;;13.35;;
13252;SDS011;6693;54.370;10.132;2022-12-11T02:07:42;29.60;;;12.63;;
13252;SDS011;6693;54.370;10.132;2022-12-11T02:08:46;30.77;;;13.23;;
13252;SDS011;6693;54.370;10.132;2022-12-11T02:09:49;29.08;;;12.02;;
13252;SDS011;6693;54.370;10.132;2022-12-11T02:10:57;28.48;;;12.68;;
13252;SDS011;6693;54.370;10.132;2022-12-11T02:12:02;31.52;;;13.40;;
13252;SDS011;6693;54.370;10.132;2022-12-11T02:13:11;28.17;;;11.70;;
13252;SDS011;6693;54.370;10.132;2022-12-11T02:14:16;28.70;;;11.40;;
13252;SDS011;6693;54.370;10.132;2022-12-11T02:15:24;31.15;;;12.85;;
13252;SDS011;6693;54.370;10.132;2022-12-11T02:16:31;26.83;;;10.73;;
13252;SDS011;6693;54.370;10.132;2022-12-11T02:17:40;29.33;;;11.57;;
13252;SDS011;6693;54.370;10.132;2022-12-11T02:18:46;29.98;;;11.02;;
13252;SDS011;6693;54.370;10.132;2022-12-11T02:19:54;26.10;;;11.73;;
13252;SDS011;6693;54.370;10.132;2022-12-11T02:20:59;27.92;;;10.88;;
13252;SDS011;6693;54.370;10.132;2022-12-11T02:22:08;29.20;;;12.25;;
13252;SDS011;6693;54.370;10.132;2022-12-11T02:24:54;26.02;;;10.82;;
13252;SDS011;6693;54.370;10.132;2022-12-11T02:26:06;27.83;;;11.93;;
13252;SDS011;6693;54.370;10.132;2022-12-11T02:27:32;25.13;;;10.77;;
13252;SDS011;6693;54.370;10.132;2022-12-11T02:28:41;27.13;;;11.73;;
13252;SDS011;6693;54.370;10.132;2022-12-11T02:29:46;26.02;;;12.05;;
13252;SDS011;6693;54.370;10.132;2022-12-11T02:30:54;28.10;;;10.98;;
13252;SDS011;6693;54.370;10.132;2022-12-11T02:31:58;30.92;;;12.73;;
13252;SDS011;6693;54.370;10.132;2022-12-11T02:33:05;28.52;;;11.85;;
13252;SDS011;6693;54.370;10.132;2022-12-11T02:34:07;29.55;;;12.65;;
13252;SDS011;6693;54.370;10.132;2022-12-11T02:35:14;30.65;;;12.63;;
13252;SDS011;6693;54.370;10.132;2022-12-11T02:36:17;31.73;;;11.15;;
13252;SDS011;6693;54.370;10.132;2022-12-11T02:37:22;32.03;;;12.25;;
13252;SDS011;6693;54.370;10.132;2022-12-11T02:38:25;27.88;;;11.93;;
13252;SDS011;6693;54.370;10.132;2022-12-11T02:39:32;29.95;;;11.07;;
13252;SDS011;6693;54.370;10.132;2022-12-11T02:40:35;29.33;;;10.82;;
13252;SDS011;6693;54.370;10.132;2022-12-11T02:41:41;27.67;;;12.60;;
13252;SDS011;6693;54.370;10.132;2022-12-11T02:42:46;31.38;;;11.45;;
13252;SDS011;6693;54.370;10.132;2022-12-11T02:43:53;30.75;;;12.45;;
13252;SDS011;6693;54.370;10.132;2022-12-11T02:44:55;32.17;;;13.15;;
13252;SDS011;6693;54.370;10.132;2022-12-11T02:46:00;28.52;;;11.70;;
13252;SDS011;6693;54.370;10.132;2022-12-11T02:47:03;32.75;;;11.15;;
13252;SDS011;6693;54.370;10.132;2022-12-11T02:48:08;30.52;;;12.15;;
13252;SDS011;6693;54.370;10.132;2022-12-11T02:49:10;27.60;;;12.35;;
13252;SDS011;6693;54.370;10.132;2022-12-11T02:50:16;29.55;;;12.93;;
13252;SDS011;6693;54.370;10.132;2022-12-11T02:51:20;30.00;;;11.52;;
13252;SDS011;6693;54.370;10.132;2022-12-11T02:52:25;27.50;;;11.13;;
13252;SDS011;6693;54.370;10.132;2022-12-11T02:53:27;27.15;;;10.85;;
13252;SDS011;6693;54.370;10.132;2022-12-11T02:54:32;27.05;;;11.95;;
13252;SDS011;6693;54.370;10.132;2022-12-11T02:55:35;26.13;;;12.20;;
13252;SDS011;6693;54.370;10.132;2022-12-11T02:56:39;29.77;;;11.88;;
13252;SDS011;6693;54.370;10.132;2022-12-11T02:57:43;27.00;;;11.73;;
13252;SDS011;6693;54.370;10.132;2022-12-11T02:58:48;28.55;;;12.10;;
13252;SDS011;6693;54.370;10.132;2022-12-11T02:59:55;28.90;;;12.35;;
13252;SDS011;6693;54.370;10.132;2022-12-11T03:00:58;29.00;;;13.45;;
13252;SDS011;6693;54.370;10.132;2022-12-11T03:02:02;30.25;;;12.77;;
13252;SDS011;6693;54.370;10.132;2022-12-11T03:03:03;30.67;;;13.38;;
13252;SDS011;6693;54.370;10.132;2022-12-11T03:04:07;31.77;;;13.25;;
13252;SDS011;6693;54.370;10.132;2022-12-11T03:05:08;30.02;;;12.57;;
13252;SDS011;6693;54.370;10.132;2022-12-11T03:06:12;30.35;;;12.38;;
13252;SDS011;6693;54.370;10.132;2022-12-11T03:07:18;33.50;;;13.10;;
13252;SDS011;6693;54.370;10.132;2022-12-11T03:08:24;31.33;;;12.90;;
13252;SDS011;6693;54.370;10.132;2022-12-11T03:09:25;31.95;;;13.02;;
13252;SDS011;6693;54.370;10.132;2022-12-11T03:10:29;31.85;;;14.70;;
13252;SDS011;6693;54.370;10.132;2022-12-11T03:11:29;30.23;;;13.05;;
13252;SDS011;6693;54.370;10.132;2022-12-11T03:12:33;31.17;;;14.27;;
13252;SDS011;6693;54.370;10.132;2022-12-11T03:13:38;29.48;;;12.77;;
13252;SDS011;6693;54.370;10.132;2022-12-11T03:14:45;27.73;;;13.20;;
13252;SDS011;6693;54.370;10.132;2022-12-11T03:15:49;28.25;;;11.35;;
13252;SDS011;6693;54.370;10.132;2022-12-11T03:16:59;26.60;;;12.40;;
13252;SDS011;6693;54.370;10.132;2022-12-11T03:18:05;27.25;;;12.32;;
13252;SDS011;6693;54.370;10.132;2022-12-11T03:19:13;28.35;;;12.60;;
13252;SDS011;6693;54.370;10.132;2022-12-11T03:20:20;29.30;;;11.82;;
13252;SDS011;6693;54.370;10.132;2022-12-11T03:21:30;30.05;;;13.15;;
13252;SDS011;6693;54.370;10.132;2022-12-11T03:22:36;26.92;;;12.95;;
13252;SDS011;6693;54.370;10.132;2022-12-11T03:23:43;28.85;;;11.30;;
13252;SDS011;6693;54.370;10.132;2022-12-11T03:24:49;26.52;;;11.98;;
13252;SDS011;6693;54.370;10.132;2022-12-11T03:25:54;26.35;;;11.27;;
13252;SDS011;6693;54.370;10.132;2022-12-11T03:26:57;26.45;;;10.80;;
13252;SDS011;6693;54.370;10.132;2022-12-11T03:28:04;26.15;;;11.02;;
13252;SDS011;6693;54.370;10.132;2022-12-11T03:29:09;26.40;;;12.45;;
13252;SDS011;6693;54.370;10.132;2022-12-11T03:30:19;26.17;;;12.00;;
13252;SDS011;6693;54.370;10.132;2022-12-11T03:31:21;29.73;;;11.52;;
13252;SDS011;6693;54.370;10.132;2022-12-11T03:32:28;28.23;;;11.05;;
13252;SDS011;6693;54.370;10.132;2022-12-11T03:33:31;25.95;;;12.25;;
13252;SDS011;6693;54.370;10.132;2022-12-11T03:34:37;26.55;;;10.48;;
13252;SDS011;6693;54.370;10.132;2022-12-11T03:35:41;24.75;;;10.27;;
13252;SDS011;6693;54.370;10.132;2022-12-11T03:36:46;26.88;;;12.00;;
13252;SDS011;6693;54.370;10.132;2022-12-11T03:37:46;27.17;;;12.13;;
13252;SDS011;6693;54.370;10.132;2022-12-11T03:38:52;29.83;;;13.13;;
13252;SDS011;6693;54.370;10.132;2022-12-11T03:39:55;28.95;;;12.13;;
13252;SDS011;6693;54.370;10.132;2022-12-11T03:41:00;28.25;;;13.02;;
13252;SDS011;6693;54.370;10.132;2022-12-11T03:43:06;26.95;;;11.80;;
13252;SDS011;6693;54.370;10.132;2022-12-11T03:44:07;28.02;;;11.82;;
13252;SDS011;6693;54.370;10.132;2022-12-11T03:45:11;27.92;;;12.77;;
13252;SDS011;6693;54.370;10.132;2022-12-11T03:46:15;26.15;;;11.48;;
13252;SDS011;6693;54.370;10.132;2022-12-11T03:47:19;32.65;;;12.85;;
13252;SDS011;6693;54.370;10.132;2022-12-11T03:48:22;28.88;;;10.45;;
13252;SDS011;6693;54.370;10.132;2022-12-11T03:49:28;28.05;;;12.25;;
13252;SDS011;6693;54.370;10.132;2022-12-11T03:50:32;27.33;;;12.50;;
13252;SDS011;6693;54.370;10.132;2022-12-11T03:51:36;26.15;;;10.40;;
13252;SDS011;6693;54.370;10.132;2022-12-11T03:52:38;27.05;;;11.88;;
13252;SDS011;6693;54.370;10.132;2022-12-11T03:53:42;28.35;;;12.20;;
13252;SDS011;6693;54.370;10.132;2022-12-11T03:54:44;30.15;;;11.88;;
13252;SDS011;6693;54.370;10.132;2022-12-11T03:55:48;28.38;;;12.70;;
13252;SDS011;6693;54.370;10.132;2022-12-11T03:56:49;26.00;;;11.15;;
13252;SDS011;6693;54.370;10.132;2022-12-11T03:57:53;18.38;;;8.15;;
13252;SDS011;6693;54.370;10.132;2022-12-11T03:58:54;21.63;;;8.70;;
13252;SDS011;6693;54.370;10.132;2022-12-11T03:59:57;19.33;;;8.68;;
13252;SDS011;6693;54.370;10.132;2022-12-11T04:00:58;21.80;;;8.68;;
13252;SDS011;6693;54.370;10.132;2022-12-11T04:02:03;20.33;;;7.88;;
13252;SDS011;6693;54.370;10.132;2022-12-11T04:03:09;19.42;;;7.53;;
13252;SDS011;6693;54.370;10.132;2022-12-11T04:04:17;23.77;;;9.27;;
13252;SDS011;6693;54.370;10.132;2022-12-11T04:05:17;20.10;;;8.32;;
13252;SDS011;6693;54.370;10.132;2022-12-11T04:06:20;27.90;;;11.73;;
13252;SDS011;6693;54.370;10.132;2022-12-11T04:07:21;23.70;;;10.02;;
13252;SDS011;6693;54.370;10.132;2022-12-11T04:08:24;19.50;;;8.25;;
13252;SDS011;6693;54.370;10.132;2022-12-11T04:09:25;24.80;;;10.35;;
13252;SDS011;6693;54.370;10.132;2022-12-11T04:10:28;24.95;;;10.27;;
13252;SDS011;6693;54.370;10.132;2022-12-11T04:11:29;24.48;;;9.52;;
13252;SDS011;6693;54.370;10.132;2022-12-11T04:12:42;20.27;;;7.63;;
13252;SDS011;6693;54.370;10.132;2022-12-11T04:13:42;22.23;;;8.02;;
13252;SDS011;6693;54.370;10.132;2022-12-11T04:15:06;24.45;;;9.07;;
13252;SDS011;6693;54.370;10.132;2022-12-11T04:16:07;17.10;;;6.47;;
13252;SDS011;6693;54.370;10.132;2022-12-11T04:17:10;25.85;;;8.77;;
13252;SDS011;6693;54.370;10.132;2022-12-11T04:18:33;23.73;;;9.93;;
13252;SDS011;6693;54.370;10.132;2022-12-11T04:19:49;20.45;;;7.28;;
13252;SDS011;6693;54.370;10.132;2022-12-11T04:21:20;16.67;;;6.90;;
13252;SDS011;6693;54.370;10.132;2022-12-11T04:22:35;19.13;;;8.50;;
13252;SDS011;6693;54.370;10.132;2022-12-11T04:23:51;24.33;;;7.93;;
13252;SDS011;6693;54.370;10.132;2022-12-11T04:25:07;23.67;;;9.40;;
13252;SDS011;6693;54.370;10.132;2022-12-11T04:26:11;21.73;;;7.68;;
13252;SDS011;6693;54.370;10.132;2022-12-11T04:27:13;26.08;;;10.75;;
13252;SDS011;6693;54.370;10.132;2022-12-11T04:28:38;24.77;;;9.85;;
13252;SDS011;6693;54.370;10.132;2022-12-11T04:29:38;26.80;;;9.55;;
13252;SDS011;6693;54.370;10.132;2022-12-11T04:30:46;25.60;;;9.82;;
13252;SDS011;6693;54.370;10.132;2022-12-11T04:31:47;24.17;;;8.52;;
13252;SDS011;6693;54.370;10.132;2022-12-11T04:32:54;26.38;;;10.23;;
13252;SDS011;6693;54.370;10.132;2022-12-11T04:33:54;25.80;;;11.20;;
13252;SDS011;6693;54.370;10.132;2022-12-11T04:34:57;26.05;;;10.65;;
13252;SDS011;6693;54.370;10.132;2022-12-11T04:35:58;26.17;;;10.85;;
13252;SDS011;6693;54.370;10.132;2022-12-11T04:37:02;28.10;;;10.93;;
13252;SDS011;6693;54.370;10.132;2022-12-11T04:38:02;27.45;;;11.35;;
13252;SDS011;6693;54.370;10.132;2022-12-11T04:39:06;24.70;;;10.63;;
13252;SDS011;6693;54.370;10.132;2022-12-11T04:40:07;26.17;;;10.18;;
13252;SDS011;6693;54.370;10.132;2022-12-11T04:41:13;25.30;;;10.45;;
13252;SDS011;6693;54.370;10.132;2022-12-11T04:42:14;24.85;;;10.27;;
13252;SDS011;6693;54.370;10.132;2022-12-11T04:43:17;26.63;;;11.75;;
13252;SDS011;6693;54.370;10.132;2022-12-11T04:44:18;27.15;;;9.98;;
13252;SDS011;6693;54.370;10.132;2022-12-11T04:45:21;25.25;;;10.35;;
13252;SDS011;6693;54.370;10.132;2022-12-11T04:46:22;26.42;;;11.27;;
13252;SDS011;6693;54.370;10.132;2022-12-11T04:47:26;27.48;;;10.98;;
13252;SDS011;6693;54.370;10.132;2022-12-11T04:48:29;27.33;;;11.40;;
13252;SDS011;6693;54.370;10.132;2022-12-11T04:49:32;30.17;;;12.77;;
13252;SDS011;6693;54.370;10.132;2022-12-11T04:50:33;29.83;;;10.52;;
13252;SDS011;6693;54.370;10.132;2022-12-11T04:51:36;28.08;;;11.32;;
13252;SDS011;6693;54.370;10.132;2022-12-11T04:52:36;26.75;;;10.18;;
13252;SDS011;6693;54.370;10.132;2022-12-11T04:53:40;28.13;;;11.15;;
13252;SDS011;6693;54.370;10.132;2022-12-11T04:54:40;28.33;;;10.80;;
13252;SDS011;6693;54.370;10.132;2022-12-11T04:55:44;28.75;;;11.77;;
13252;SDS011;6693;54.370;10.132;2022-12-11T04:56:44;26.73;;;10.13;;
13252;SDS011;6693;54.370;10.132;2022-12-11T04:57:47;28.42;;;11.50;;
13252;SDS011;6693;54.370;10.132;2022-12-11T04:58:48;27.58;;;10.48;;
13252;SDS011;6693;54.370;10.132;2022-12-11T04:59:51;26.48;;;9.90;;
13252;SDS011;6693;54.370;10.132;2022-12-11T05:00:52;25.48;;;9.98;;
13252;SDS011;6693;54.370;10.132;2022-12-11T05:01:55;25.60;;;10.20;;
13252;SDS011;6693;54.370;10.132;2022-12-11T05:02:56;28.80;;;11.98;;
13252;SDS011;6693;54.370;10.132;2022-12-11T05:04:02;28.45;;;10.82;;
13252;SDS011;6693;54.370;10.132;2022-12-11T05:05:03;27.15;;;10.23;;
13252;SDS011;6693;54.370;10.132;2022-12-11T05:06:08;27.17;;;10.20;;
13252;SDS011;6693;54.370;10.132;2022-12-11T05:07:09;30.05;;;11.73;;
13252;SDS011;6693;54.370;10.132;2022-12-11T05:08:12;24.70;;;10.32;;
13252;SDS011;6693;54.370;10.132;2022-12-11T05:09:13;26.40;;;10.48;;
13252;SDS011;6693;54.370;10.132;2022-12-11T05:10:16;26.42;;;10.52;;
13252;SDS011;6693;54.370;10.132;2022-12-11T05:11:20;24.13;;;10.15;;
13252;SDS011;6693;54.370;10.132;2022-12-11T05:12:20;26.52;;;10.73;;
13252;SDS011;6693;54.370;10.132;2022-12-11T05:13:24;26.10;;;9.35;;
13252;SDS011;6693;54.370;10.132;2022-12-11T05:14:26;25.20;;;10.35;;
13252;SDS011;6693;54.370;10.132;2022-12-11T05:15:31;25.50;;;10.75;;
13252;SDS011;6693;54.370;10.132;2022-12-11T05:16:31;26.63;;;10.57;;
13252;SDS011;6693;54.370;10.132;2022-12-11T05:17:34;25.92;;;9.77;;
13252;SDS011;6693;54.370;10.132;2022-12-11T05:18:35;26.55;;;9.95;;
13252;SDS011;6693;54.370;10.132;2022-12-11T05:19:41;26.98;;;9.68;;
13252;SDS011;6693;54.370;10.132;2022-12-11T05:20:41;26.42;;;8.95;;
13252;SDS011;6693;54.370;10.132;2022-12-11T05:21:45;24.83;;;9.05;;
13252;SDS011;6693;54.370;10.132;2022-12-11T05:22:45;24.77;;;10.63;;
13252;SDS011;6693;54.370;10.132;2022-12-11T05:23:48;26.00;;;10.50;;
13252;SDS011;6693;54.370;10.132;2022-12-11T05:24:49;28.40;;;10.25;;
13252;SDS011;6693;54.370;10.132;2022-12-11T05:25:52;25.20;;;10.75;;
13252;SDS011;6693;54.370;10.132;2022-12-11T05:26:53;26.35;;;10.93;;
13252;SDS011;6693;54.370;10.132;2022-12-11T05:27:57;25.90;;;9.48;;
13252;SDS011;6693;54.370;10.132;2022-12-11T05:28:57;28.98;;;11.50;;
13252;SDS011;6693;54.370;10.132;2022-12-11T05:30:00;29.50;;;10.90;;
13252;SDS011;6693;54.370;10.132;2022-12-11T05:31:02;27.20;;;10.65;;
13252;SDS011;6693;54.370;10.132;2022-12-11T05:32:07;25.70;;;9.43;;
13252;SDS011;6693;54.370;10.132;2022-12-11T05:33:07;29.00;;;11.55;;
13252;SDS011;6693;54.370;10.132;2022-12-11T05:34:10;27.00;;;10.40;;
13252;SDS011;6693;54.370;10.132;2022-12-11T05:35:14;28.23;;;11.80;;
13252;SDS011;6693;54.370;10.132;2022-12-11T05:36:18;23.75;;;10.68;;
13252;SDS011;6693;54.370;10.132;2022-12-11T05:37:20;25.27;;;9.38;;
13252;SDS011;6693;54.370;10.132;2022-12-11T05:38:23;29.40;;;11.70;;
13252;SDS011;6693;54.370;10.132;2022-12-11T05:39:24;28.88;;;12.18;;
13252;SDS011;6693;54.370;10.132;2022-12-11T05:40:27;28.38;;;12.18;;
13252;SDS011;6693;54.370;10.132;2022-12-11T05:41:29;28.67;;;11.65;;
13252;SDS011;6693;54.370;10.132;2022-12-11T05:42:32;32.28;;;12.85;;
13252;SDS011;6693;54.370;10.132;2022-12-11T05:43:34;32.10;;;11.90;;
13252;SDS011;6693;54.370;10.132;2022-12-11T05:44:38;31.17;;;12.57;;
13252;SDS011;6693;54.370;10.132;2022-12-11T05:45:38;30.35;;;12.80;;
13252;SDS011;6693;54.370;10.132;2022-12-11T05:46:41;26.02;;;10.18;;
13252;SDS011;6693;54.370;10.132;2022-12-11T05:47:42;26.58;;;11.48;;
13252;SDS011;6693;54.370;10.132;2022-12-11T05:48:46;27.98;;;12.05;;
13252;SDS011;6693;54.370;10.132;2022-12-11T05:49:47;28.55;;;11.95;;
13252;SDS011;6693;54.370;10.132;2022-12-11T05:51:00;29.60;;;11.88;;
13252;SDS011;6693;54.370;10.132;2022-12-11T05:52:01;27.65;;;11.27;;
13252;SDS011;6693;54.370;10.132;2022-12-11T05:53:04;25.73;;;11.68;;
13252;SDS011;6693;54.370;10.132;2022-12-11T05:54:05;25.23;;;9.98;;
13252;SDS011;6693;54.370;10.132;2022-12-11T05:55:08;28.35;;;11.88;;
13252;SDS011;6693;54.370;10.132;2022-12-11T05:56:10;25.13;;;10.85;;
13252;SDS011;6693;54.370;10.132;2022-12-11T05:57:14;27.33;;;12.27;;
13252;SDS011;6693;54.370;10.132;2022-12-11T05:58:15;27.55;;;10.35;;
13252;SDS011;6693;54.370;10.132;2022-12-11T05:59:18;29.42;;;11.38;;
13252;SDS011;6693;54.370;10.132;2022-12-11T06:00:21;30.20;;;11.30;;
13252;SDS011;6693;54.370;10.132;2022-12-11T06:01:24;26.83;;;12.45;;
13252;SDS011;6693;54.370;10.132;2022-12-11T06:02:28;29.02;;;12.27;;
13252;SDS011;6693;54.370;10.132;2022-12-11T06:03:28;27.20;;;11.10;;
13252;SDS011;6693;54.370;10.132;2022-12-11T06:04:32;25.35;;;10.27;;
13252;SDS011;6693;54.370;10.132;2022-12-11T06:05:36;27.25;;;12.15;;
13252;SDS011;6693;54.370;10.132;2022-12-11T06:06:42;28.85;;;11.65;;
13252;SDS011;6693;54.370;10.132;2022-12-11T06:07:42;28.05;;;11.40;;
13252;SDS011;6693;54.370;10.132;2022-12-11T06:08:48;30.42;;;11.93;;
13252;SDS011;6693;54.370;10.132;2022-12-11T06:09:48;25.35;;;10.27;;
13252;SDS011;6693;54.370;10.132;2022-12-11T06:10:52;27.02;;;11.05;;
13252;SDS011;6693;54.370;10.132;2022-12-11T06:11:52;30.02;;;12.32;;
13252;SDS011;6693;54.370;10.132;2022-12-11T06:12:55;28.38;;;11.35;;
13252;SDS011;6693;54.370;10.132;2022-12-11T06:13:56;26.77;;;10.35;;
13252;SDS011;6693;54.370;10.132;2022-12-11T06:15:00;30.48;;;13.23;;
13252;SDS011;6693;54.370;10.132;2022-12-11T06:16:01;29.52;;;12.52;;
13252;SDS011;6693;54.370;10.132;2022-12-11T06:17:04;32.63;;;14.18;;
13252;SDS011;6693;54.370;10.132;2022-12-11T06:18:08;39.13;;;14.18;;
13252;SDS011;6693;54.370;10.132;2022-12-11T06:19:14;37.53;;;15.65;;
13252;SDS011;6693;54.370;10.132;2022-12-11T06:20:18;37.83;;;15.30;;
13252;SDS011;6693;54.370;10.132;2022-12-11T06:21:19;30.65;;;12.82;;